createdAt,value
2022-11-17T00:00:43.251Z,2.60
2022-11-17T00:03:16.229Z,2.60
2022-11-17T00:05:44.740Z,2.50
2022-11-17T00:08:12.094Z,2.50
2022-11-17T00:10:39.084Z,2.60
2022-11-17T00:13:24.934Z,2.60
2022-11-17T00:15:51.871Z,2.60
2022-11-17T00:18:37.337Z,2.50
2022-11-17T00:21:21.411Z,2.50
2022-11-17T00:23:50.339Z,2.50
2022-11-17T00:26:27.548Z,2.50
2022-11-17T00:28:57.498Z,2.50
2022-11-17T00:31:44.929Z,2.50
2022-11-17T00:34:17.136Z,2.40
2022-11-17T00:36:50.492Z,2.50
2022-11-17T00:39:22.533Z,2.40
2022-11-17T00:41:50.110Z,2.40
2022-11-17T00:44:17.636Z,2.40
2022-11-17T00:46:45.035Z,2.50
2022-11-17T00:49:13.085Z,2.50
2022-11-17T00:51:40.334Z,2.40
2022-11-17T00:54:11.566Z,2.40
2022-11-17T00:56:38.948Z,2.40
2022-11-17T00:59:05.999Z,2.40
2022-11-17T01:01:33.150Z,2.40
2022-11-17T01:04:04.374Z,2.40
2022-11-17T01:06:50.174Z,2.50
2022-11-17T01:09:23.286Z,2.50
2022-11-17T01:11:52.598Z,2.50
2022-11-17T01:14:28.387Z,2.50
2022-11-17T01:16:56.121Z,2.40
2022-11-17T01:19:24.833Z,2.40
2022-11-17T01:21:52.112Z,2.30
2022-11-17T01:24:19.129Z,2.30
2022-11-17T01:26:46.784Z,2.20
2022-11-17T01:29:18.865Z,2.20
2022-11-17T01:31:50.592Z,2.10
2022-11-17T01:34:17.973Z,2.10
2022-11-17T01:37:03.776Z,2.20
2022-11-17T01:39:32.159Z,2.20
2022-11-17T01:42:05.277Z,2.20
2022-11-17T01:44:55.003Z,2.30
2022-11-17T01:47:55.220Z,2.30
2022-11-17T01:50:41.578Z,2.30
2022-11-17T01:56:11.109Z,2.30
2022-11-17T01:58:45.706Z,2.20
2022-11-17T02:01:12.772Z,2.30
2022-11-17T02:03:41.570Z,2.20
2022-11-17T02:06:17.156Z,2.30
2022-11-17T02:08:47.078Z,2.30
2022-11-17T02:11:19.530Z,2.30
2022-11-17T02:13:48.180Z,2.20
2022-11-17T02:16:17.180Z,2.20
2022-11-17T02:18:46.411Z,2.20
2022-11-17T02:21:56.428Z,2.20
2022-11-17T02:24:38.328Z,2.30
2022-11-17T02:27:32.883Z,2.20
2022-11-17T02:30:12.326Z,2.20
2022-11-17T02:32:52.523Z,2.20
2022-11-17T02:35:54.685Z,2.20
2022-11-17T02:38:39.177Z,2.10
2022-11-17T02:41:34.712Z,2.10
2022-11-17T02:55:35.803Z,2.10
2022-11-17T02:58:02.722Z,2.90
2022-11-17T03:00:35.048Z,2.60
2022-11-17T03:03:45.291Z,2.50
2022-11-17T03:06:30.229Z,2.30
2022-11-17T03:09:18.668Z,2.30
2022-11-17T03:11:57.423Z,2.10
2022-11-17T03:15:15.324Z,2.20
2022-11-17T03:18:05.792Z,2.10
2022-11-17T03:20:54.027Z,2.20
2022-11-17T03:23:49.864Z,2.20
2022-11-17T03:26:31.154Z,2.10
2022-11-17T03:29:02.070Z,2.00
2022-11-17T03:31:32.813Z,2.10
2022-11-17T03:34:03.568Z,2.10
2022-11-17T03:36:40.029Z,2.10
2022-11-17T03:39:24.019Z,2.10
2022-11-17T03:42:01.985Z,2.20
2022-11-17T03:44:34.937Z,2.20
2022-11-17T03:47:05.010Z,2.20
2022-11-17T03:49:52.762Z,2.20
2022-11-17T03:52:20.712Z,2.20
2022-11-17T03:54:48.182Z,2.20
2022-11-17T03:57:34.930Z,2.20
2022-11-17T04:00:10.962Z,2.20
2022-11-17T04:02:43.113Z,2.30
2022-11-17T04:05:12.011Z,2.30
2022-11-17T04:07:46.877Z,2.30
2022-11-17T04:10:19.991Z,2.30
2022-11-17T04:13:09.043Z,2.40
2022-11-17T04:15:55.094Z,2.40
2022-11-17T04:18:23.548Z,2.40
2022-11-17T04:20:56.814Z,2.40
2022-11-17T04:23:25.821Z,2.40
2022-11-17T04:26:14.634Z,2.50
2022-11-17T04:28:47.426Z,2.50
2022-11-17T04:31:28.216Z,2.50
2022-11-17T04:34:01.303Z,2.50
2022-11-17T04:36:32.521Z,2.50
2022-11-17T04:39:01.037Z,2.50
2022-11-17T04:41:48.842Z,2.50
2022-11-17T04:44:17.880Z,2.40
2022-11-17T04:46:48.873Z,2.40
2022-11-17T04:49:18.360Z,2.40
2022-11-17T04:51:46.568Z,2.40
2022-11-17T04:54:17.015Z,2.40
2022-11-17T04:56:45.093Z,2.40
2022-11-17T04:59:12.341Z,2.40
2022-11-17T05:01:39.346Z,2.40
2022-11-17T05:04:35.678Z,2.40
2022-11-17T05:07:05.381Z,2.40
2022-11-17T05:09:32.516Z,2.40
2022-11-17T05:12:18.405Z,2.40
2022-11-17T05:14:47.659Z,2.40
2022-11-17T05:17:14.609Z,2.30
2022-11-17T05:19:47.536Z,2.40
2022-11-17T05:22:35.862Z,2.40
2022-11-17T05:25:04.205Z,2.30
2022-11-17T05:27:31.268Z,2.30
2022-11-17T05:29:58.230Z,2.30
2022-11-17T05:32:25.253Z,2.30
2022-11-17T05:34:52.197Z,2.30
2022-11-17T05:37:19.224Z,2.30
2022-11-17T05:39:46.239Z,2.30
2022-11-17T05:42:13.193Z,2.30
2022-11-17T05:44:40.203Z,2.30
2022-11-17T05:47:07.364Z,2.20
2022-11-17T05:49:34.325Z,2.20
2022-11-17T05:52:01.272Z,2.20
2022-11-17T05:54:28.240Z,2.20
2022-11-17T05:57:09.562Z,2.20
2022-11-17T05:59:55.147Z,2.20
2022-11-17T06:02:33.855Z,2.20
2022-11-17T06:05:01.996Z,2.10
2022-11-17T06:07:29.139Z,2.30
2022-11-17T06:09:57.221Z,2.20
2022-11-17T06:12:24.259Z,2.20
2022-11-17T06:14:51.229Z,2.20
2022-11-17T06:17:35.670Z,2.30
2022-11-17T06:20:28.114Z,2.20
2022-11-17T06:23:00.378Z,2.20
2022-11-17T06:25:29.123Z,2.20
2022-11-17T06:27:57.887Z,2.20
2022-11-17T06:30:24.826Z,2.20
2022-11-17T06:32:53.534Z,2.20
2022-11-17T06:35:20.681Z,2.20
2022-11-17T06:37:47.624Z,2.20
2022-11-17T06:40:15.370Z,2.20
2022-11-17T06:43:01.513Z,2.10
2022-11-17T06:45:28.461Z,2.10
2022-11-17T06:47:55.593Z,2.10
2022-11-17T06:50:22.680Z,2.20
2022-11-17T06:52:49.546Z,2.10
2022-11-17T06:55:16.596Z,2.10
2022-11-17T06:57:46.546Z,2.10
2022-11-17T07:00:16.427Z,2.10
2022-11-17T07:02:43.595Z,2.10
2022-11-17T07:05:10.526Z,2.00
2022-11-17T07:07:37.494Z,2.00
2022-11-17T07:10:04.765Z,2.10
2022-11-17T07:12:33.285Z,2.10
2022-11-17T07:15:00.248Z,2.10
2022-11-17T07:17:27.346Z,2.10
2022-11-17T07:19:54.949Z,2.10
2022-11-17T07:22:21.881Z,2.10
2022-11-17T07:24:48.776Z,2.00
2022-11-17T07:27:15.739Z,2.00
2022-11-17T07:29:42.696Z,2.10
2022-11-17T07:32:13.861Z,2.10
2022-11-17T07:34:44.276Z,2.00
2022-11-17T07:37:11.219Z,1.90
2022-11-17T07:39:38.168Z,1.90
2022-11-17T07:42:05.141Z,2.00
2022-11-17T07:44:32.260Z,2.00
2022-11-17T07:47:02.078Z,2.00
2022-11-17T07:49:29.464Z,2.00
2022-11-17T07:51:56.426Z,2.10
2022-11-17T07:54:23.385Z,2.20
2022-11-17T07:56:50.402Z,2.10
2022-11-17T07:59:21.366Z,2.10
2022-11-17T08:01:48.678Z,2.20
2022-11-17T08:04:16.018Z,2.20
2022-11-17T08:06:42.927Z,2.20
2022-11-17T08:09:10.748Z,2.30
2022-11-17T08:11:37.703Z,2.30
2022-11-17T08:14:04.691Z,2.20
2022-11-17T08:16:32.137Z,2.20
2022-11-17T08:18:59.635Z,2.30
2022-11-17T08:21:26.625Z,2.20
2022-11-17T08:23:55.140Z,2.30
2022-11-17T08:26:25.315Z,2.20
2022-11-17T08:28:57.884Z,2.10
2022-11-17T08:31:25.527Z,2.20
2022-11-17T08:33:52.462Z,2.20
2022-11-17T08:36:19.343Z,2.10
2022-11-17T08:38:46.293Z,2.10
2022-11-17T08:41:13.252Z,2.10
2022-11-17T08:43:40.143Z,2.10
2022-11-17T08:46:12.910Z,2.20
2022-11-17T08:48:40.712Z,2.20
2022-11-17T08:51:09.524Z,2.20
2022-11-17T08:53:39.389Z,2.20
2022-11-17T08:56:12.384Z,2.10
2022-11-17T08:58:43.399Z,2.30
2022-11-17T09:01:15.527Z,2.30
2022-11-17T09:03:44.887Z,2.20
2022-11-17T09:06:13.605Z,2.30
2022-11-17T09:08:48.121Z,2.30
2022-11-17T09:11:16.726Z,2.30
2022-11-17T09:13:45.660Z,2.40
2022-11-17T09:16:12.850Z,2.40
2022-11-17T09:18:41.470Z,2.50
2022-11-17T09:21:15.626Z,2.60
2022-11-17T09:23:43.637Z,2.60
2022-11-17T09:26:14.738Z,2.50
2022-11-17T09:28:42.731Z,2.50
2022-11-17T09:31:16.396Z,2.50
2022-11-17T09:33:44.619Z,2.50
2022-11-17T09:36:14.872Z,2.50
2022-11-17T09:38:42.455Z,2.50
2022-11-17T09:41:48.111Z,2.40
2022-11-17T09:44:34.497Z,2.40
2022-11-17T09:47:35.989Z,2.50
2022-11-17T09:50:24.576Z,2.50
2022-11-17T09:53:00.511Z,2.50
2022-11-17T09:55:40.574Z,2.60
2022-11-17T09:58:14.749Z,2.70
2022-11-17T10:00:48.774Z,2.60
2022-11-17T10:03:42.056Z,2.60
2022-11-17T10:06:19.238Z,2.60
2022-11-17T10:09:01.320Z,2.60
2022-11-17T10:11:37.245Z,2.70
2022-11-17T10:14:13.618Z,2.70
2022-11-17T10:16:59.355Z,2.80
2022-11-17T10:19:34.513Z,2.80
2022-11-17T10:22:05.303Z,3.00
2022-11-17T10:24:35.139Z,3.00
2022-11-17T10:27:05.439Z,3.00
2022-11-17T10:29:32.925Z,2.90
2022-11-17T10:32:05.687Z,3.00
2022-11-17T10:34:41.175Z,3.10
2022-11-17T10:37:32.034Z,3.20
2022-11-17T10:40:39.871Z,3.20
2022-11-17T10:43:12.806Z,3.20
2022-11-17T10:45:51.771Z,3.30
2022-11-17T10:48:33.532Z,3.20
2022-11-17T10:51:23.250Z,3.30
2022-11-17T10:54:16.089Z,3.40
2022-11-17T10:57:00.073Z,3.50
2022-11-17T10:59:44.319Z,3.60
2022-11-17T11:02:37.058Z,3.60
2022-11-17T11:05:18.007Z,3.60
2022-11-17T11:07:45.615Z,3.60
2022-11-17T11:10:34.502Z,3.60
2022-11-17T11:13:27.348Z,3.50
2022-11-17T11:15:54.443Z,3.60
2022-11-17T11:18:22.103Z,3.60
2022-11-17T11:21:23.271Z,3.70
2022-11-17T11:24:11.111Z,3.70
2022-11-17T11:27:23.141Z,3.70
2022-11-17T11:30:25.483Z,3.80
2022-11-17T11:33:37.915Z,3.90
2022-11-17T11:36:42.641Z,4.00
2022-11-17T11:39:52.993Z,4.00
2022-11-17T11:42:55.962Z,4.10
2022-11-17T11:45:42.745Z,4.20
2022-11-17T11:48:33.724Z,4.20
2022-11-17T11:51:29.525Z,4.20
2022-11-17T11:54:10.173Z,4.10
2022-11-17T11:56:44.207Z,4.10
2022-11-17T12:00:00.891Z,4.10
2022-11-17T12:02:51.638Z,4.10
2022-11-17T12:05:54.603Z,4.00
2022-11-17T12:08:35.387Z,4.00
2022-11-17T12:11:34.787Z,4.00
2022-11-17T12:14:05.888Z,4.00
2022-11-17T12:16:36.420Z,4.00
2022-11-17T12:20:09.173Z,4.00
2022-11-17T12:22:37.508Z,3.90
2022-11-17T12:25:21.989Z,3.80
2022-11-17T12:27:55.179Z,3.80
2022-11-17T12:30:31.177Z,3.80
2022-11-17T12:33:00.657Z,3.80
2022-11-17T12:35:37.256Z,3.80
2022-11-17T12:38:19.926Z,3.90
2022-11-17T12:40:51.598Z,3.90
2022-11-17T12:43:26.091Z,3.80
2022-11-17T12:45:55.611Z,3.70
2022-11-17T12:48:36.145Z,3.60
2022-11-17T12:51:27.709Z,3.50
2022-11-17T12:54:22.559Z,3.60
2022-11-17T12:57:34.483Z,3.50
2022-11-17T13:00:07.484Z,3.40
2022-11-17T13:03:22.067Z,3.50
2022-11-17T13:06:34.369Z,3.70
2022-11-17T13:09:06.082Z,3.70
2022-11-17T13:11:33.979Z,3.80
2022-11-17T13:14:14.617Z,3.80
2022-11-17T13:16:51.162Z,3.70
2022-11-17T13:19:32.833Z,3.70
2022-11-17T13:22:05.766Z,3.60
2022-11-17T13:24:39.800Z,3.60
2022-11-17T13:27:38.020Z,3.70
2022-11-17T13:30:31.498Z,3.70
2022-11-17T13:33:02.245Z,3.70
2022-11-17T13:35:32.348Z,3.80
2022-11-17T13:38:11.566Z,3.90
2022-11-17T13:40:42.373Z,3.90
2022-11-17T13:43:18.333Z,4.00
2022-11-17T13:45:47.173Z,3.90
2022-11-17T13:48:37.082Z,3.80
2022-11-17T13:51:35.047Z,3.80
2022-11-17T13:54:04.740Z,3.70
2022-11-17T13:56:40.811Z,3.70
2022-11-17T13:59:39.001Z,3.70
2022-11-17T14:02:20.501Z,3.60
2022-11-17T14:05:10.695Z,3.60
2022-11-17T14:07:39.420Z,3.50
2022-11-17T14:10:21.626Z,3.60
2022-11-17T14:13:20.512Z,3.50
2022-11-17T14:15:57.818Z,3.50
2022-11-17T14:18:37.328Z,3.60
2022-11-17T14:21:17.237Z,3.60
2022-11-17T14:23:45.210Z,3.50
2022-11-17T14:26:24.895Z,3.50
2022-11-17T14:28:53.064Z,3.50
2022-11-17T14:31:20.224Z,3.50
2022-11-17T14:33:47.271Z,3.50
2022-11-17T14:36:17.961Z,3.50
2022-11-17T14:38:46.616Z,3.50
2022-11-17T14:41:18.663Z,3.50
2022-11-17T14:43:46.622Z,3.50
2022-11-17T14:46:26.816Z,3.30
2022-11-17T14:48:55.496Z,3.40
2022-11-17T14:51:22.918Z,3.30
2022-11-17T14:53:50.638Z,3.30
2022-11-17T14:56:21.192Z,3.30
2022-11-17T14:58:54.186Z,3.30
2022-11-17T15:01:28.621Z,3.40
2022-11-17T15:04:15.330Z,3.30
2022-11-17T15:06:48.395Z,3.30
2022-11-17T15:09:16.466Z,3.30
2022-11-17T15:11:43.596Z,3.20
2022-11-17T15:14:11.548Z,3.30
2022-11-17T15:16:38.528Z,3.20
2022-11-17T15:19:06.731Z,3.30
2022-11-17T15:21:33.940Z,3.20
2022-11-17T15:24:03.828Z,3.20
2022-11-17T15:26:31.385Z,3.20
2022-11-17T15:28:58.673Z,3.20
2022-11-17T15:31:25.869Z,3.20
2022-11-17T15:33:52.999Z,3.10
2022-11-17T15:36:23.042Z,3.00
2022-11-17T15:38:50.414Z,3.00
2022-11-17T15:41:17.456Z,3.00
2022-11-17T15:43:45.640Z,3.00
2022-11-17T15:46:18.227Z,2.90
2022-11-17T15:48:49.118Z,2.90
2022-11-17T15:51:19.665Z,2.80
2022-11-17T15:53:48.988Z,2.70
2022-11-17T16:07:56.546Z,2.60
2022-11-17T16:10:23.508Z,3.30
2022-11-17T16:12:51.461Z,3.10
2022-11-17T16:15:18.659Z,2.90
2022-11-17T16:17:45.745Z,2.80
2022-11-17T16:20:13.009Z,2.70
2022-11-17T16:22:40.102Z,2.60
2022-11-17T16:25:10.583Z,2.50
2022-11-17T16:27:37.669Z,2.40
2022-11-17T16:30:05.401Z,2.40
2022-11-17T16:32:32.521Z,2.30
2022-11-17T16:34:59.754Z,2.20
2022-11-17T16:37:26.685Z,2.10
2022-11-17T16:39:55.105Z,2.10
2022-11-17T16:42:22.086Z,2.00
2022-11-17T16:44:49.115Z,2.00
2022-11-17T16:47:16.191Z,2.00
2022-11-17T16:49:45.733Z,1.90
2022-11-17T16:52:16.074Z,1.90
2022-11-17T16:54:43.022Z,1.80
2022-11-17T16:57:10.144Z,1.80
2022-11-17T16:59:37.182Z,1.80
2022-11-17T17:02:04.276Z,1.70
2022-11-17T17:04:31.301Z,1.80
2022-11-17T17:06:58.621Z,1.80
2022-11-17T17:09:28.010Z,1.80
2022-11-17T17:11:55.389Z,1.80
2022-11-17T17:14:22.615Z,1.80
2022-11-17T17:16:49.994Z,1.90
2022-11-17T17:19:17.116Z,1.90
2022-11-17T17:21:45.505Z,2.00
2022-11-17T17:24:13.024Z,2.00
2022-11-17T17:26:40.689Z,2.00
2022-11-17T17:29:08.495Z,2.00
2022-11-17T17:31:39.246Z,2.00
2022-11-17T17:34:07.814Z,2.00
2022-11-17T17:36:37.217Z,2.00
2022-11-17T17:39:05.759Z,2.00
2022-11-17T17:41:39.258Z,2.00
2022-11-17T17:44:11.267Z,2.00
2022-11-17T17:46:39.028Z,2.00
2022-11-17T17:49:07.168Z,2.00
2022-11-17T17:51:39.982Z,2.00
2022-11-17T17:54:09.981Z,1.90
2022-11-17T17:56:36.926Z,1.90
2022-11-17T17:59:03.949Z,1.90
2022-11-17T18:01:36.925Z,1.80
2022-11-17T18:04:05.154Z,1.70
2022-11-17T18:06:45.963Z,1.70
2022-11-17T18:09:15.473Z,1.60
2022-11-17T18:11:46.121Z,1.60
2022-11-17T18:14:13.597Z,1.60
2022-11-17T18:16:41.042Z,1.60
2022-11-17T18:19:09.800Z,1.60
2022-11-17T18:21:37.136Z,1.50
2022-11-17T18:24:04.845Z,1.40
2022-11-17T18:26:37.175Z,1.40
2022-11-17T18:29:16.661Z,1.40
2022-11-17T18:31:47.233Z,1.40
2022-11-17T18:34:18.954Z,1.40
2022-11-17T18:36:46.182Z,1.40
2022-11-17T18:39:17.782Z,1.40
2022-11-17T18:41:45.650Z,1.50
2022-11-17T18:44:15.153Z,1.40
2022-11-17T18:46:42.164Z,1.40
2022-11-17T18:49:09.774Z,1.50
2022-11-17T18:51:36.772Z,1.50
2022-11-17T18:54:04.838Z,1.50
2022-11-17T18:56:35.596Z,1.50
2022-11-17T18:59:11.389Z,1.60
2022-11-17T19:01:41.264Z,1.60
2022-11-17T19:04:08.788Z,1.60
2022-11-17T19:06:36.496Z,1.50
2022-11-17T19:09:06.653Z,1.50
2022-11-17T19:11:34.654Z,1.50
2022-11-17T19:14:04.271Z,1.40
2022-11-17T19:16:32.615Z,1.40
2022-11-17T19:19:00.091Z,1.40
2022-11-17T19:21:35.949Z,1.40
2022-11-17T19:24:04.520Z,1.40
2022-11-17T19:26:35.797Z,1.40
2022-11-17T19:29:15.679Z,1.40
2022-11-17T19:31:43.907Z,1.40
2022-11-17T19:34:11.385Z,1.30
2022-11-17T19:36:38.403Z,1.30
2022-11-17T19:39:05.413Z,1.40
2022-11-17T19:41:45.143Z,1.40
2022-11-17T19:44:12.449Z,1.40
2022-11-17T19:46:39.501Z,1.40
2022-11-17T19:49:08.139Z,1.40
2022-11-17T19:51:37.067Z,1.30
2022-11-17T19:54:09.469Z,1.30
2022-11-17T19:56:38.311Z,1.20
2022-11-17T19:59:07.659Z,1.20
2022-11-17T20:01:36.854Z,1.20
2022-11-17T20:04:04.600Z,1.10
2022-11-17T20:06:37.586Z,1.10
2022-11-17T20:09:09.533Z,1.10
2022-11-17T20:11:36.944Z,1.10
2022-11-17T20:14:04.385Z,1.10
2022-11-17T20:16:32.257Z,1.00
2022-11-17T20:19:02.906Z,1.00
2022-11-17T20:21:31.189Z,1.00
2022-11-17T20:23:59.211Z,1.00
2022-11-17T20:26:30.877Z,1.00
2022-11-17T20:28:59.535Z,1.00
2022-11-17T20:31:32.876Z,1.10
2022-11-17T20:34:01.659Z,1.10
2022-11-17T20:36:31.653Z,1.00
2022-11-17T20:39:03.104Z,1.00
2022-11-17T20:41:30.826Z,0.90
2022-11-17T20:44:00.201Z,0.80
2022-11-17T20:46:27.571Z,0.70
2022-11-17T20:48:54.694Z,0.60
2022-11-17T20:51:24.466Z,0.50
2022-11-17T20:53:53.678Z,0.50
2022-11-17T20:56:21.187Z,0.40
2022-11-17T20:58:49.013Z,0.30
2022-11-17T21:01:22.587Z,0.30
2022-11-17T21:03:49.959Z,0.30
2022-11-17T21:06:18.039Z,0.30
2022-11-17T21:08:46.591Z,0.30
2022-11-17T21:11:35.743Z,0.30
2022-11-17T21:14:05.551Z,0.30
2022-11-17T21:16:34.236Z,0.30
2022-11-17T21:19:01.478Z,0.30
2022-11-17T21:21:28.695Z,0.30
2022-11-17T21:23:56.229Z,0.30
2022-11-17T21:26:23.702Z,0.30
2022-11-17T21:28:54.075Z,0.30
2022-11-17T21:31:24.869Z,0.40
2022-11-17T21:33:57.967Z,0.60
2022-11-17T21:36:27.434Z,0.60
2022-11-17T21:38:54.963Z,0.70
2022-11-17T21:41:28.660Z,0.70
2022-11-17T21:44:00.060Z,0.70
2022-11-17T21:46:31.110Z,0.80
2022-11-17T21:48:59.769Z,0.80
2022-11-17T21:51:33.487Z,0.90
2022-11-17T21:54:04.403Z,1.00
2022-11-17T21:56:32.234Z,1.00
2022-11-17T21:59:06.454Z,1.00
2022-11-17T22:01:34.894Z,1.10
2022-11-17T22:04:02.293Z,1.10
2022-11-17T22:06:30.329Z,1.00
2022-11-17T22:08:59.076Z,1.00
2022-11-17T22:11:36.138Z,1.00
2022-11-17T22:14:20.074Z,0.90
2022-11-17T22:16:53.248Z,0.90
2022-11-17T22:19:24.417Z,0.90
2022-11-17T22:21:54.285Z,0.80
2022-11-17T22:24:21.719Z,0.80
2022-11-17T22:26:48.925Z,0.80
2022-11-17T22:29:19.973Z,0.70
2022-11-17T22:31:48.926Z,0.70
2022-11-17T22:34:17.423Z,0.80
2022-11-17T22:36:44.431Z,0.70
2022-11-17T22:39:11.432Z,0.90
2022-11-17T22:41:38.516Z,0.90
2022-11-17T22:44:06.369Z,0.90
2022-11-17T22:46:34.965Z,0.90
2022-11-17T22:49:02.068Z,0.90
2022-11-17T22:51:47.691Z,0.90
2022-11-17T22:54:14.794Z,0.80
2022-11-17T22:56:41.811Z,0.70
2022-11-17T22:59:09.649Z,0.60
2022-11-17T23:01:36.740Z,0.60
2022-11-17T23:04:04.746Z,0.50
2022-11-17T23:06:31.795Z,0.40
2022-11-17T23:08:59.140Z,0.50
2022-11-17T23:11:37.888Z,0.60
2022-11-17T23:14:12.186Z,0.60
2022-11-17T23:16:40.157Z,0.50
2022-11-17T23:19:10.271Z,0.60
2022-11-17T23:21:37.338Z,0.50
2022-11-17T23:24:05.040Z,0.50
2022-11-17T23:26:32.042Z,0.60
2022-11-17T23:28:59.112Z,0.60
2022-11-17T23:31:27.898Z,0.60
2022-11-17T23:33:55.060Z,0.60
2022-11-17T23:36:23.183Z,0.60
2022-11-17T23:38:51.595Z,0.60
2022-11-17T23:41:22.884Z,0.50
2022-11-17T23:43:52.417Z,0.30
2022-11-17T23:46:23.749Z,0.40
2022-11-17T23:48:51.027Z,0.30
2022-11-17T23:51:23.674Z,0.30
2022-11-17T23:53:51.245Z,0.30
2022-11-17T23:56:20.654Z,0.40
2022-11-17T23:58:48.323Z,0.40
